Terminal Aerodrome Forecast
Issued by NWS Wilmington, OH

Current Version | Previous Version | Graphics & Text | Print | Product List | Glossary On
Versions: 1 2 3 4 5 6 7 8 9 10 11 12 13 14 15 16 17 18
428
FTUS41 KILN 082108 AAA
TAFDAY
TAF AMD
KDAY 082108Z 0821/0918 29009KT P6SM SCT030 OVC060
      TEMPO 0821/0824 3SM -SN
     FM090000 27009KT P6SM -SN BKN015 OVC025
     FM090500 29012G20KT P6SM -SN OVC012
     FM091100 29013G23KT 3SM -SN OVC008=

USA.gov is the U.S. government's official web portal to all federal, state and local government web resources and services.